sensor_id;sensor_type;location;lat;lon;timestamp;pressure;altitude;pressure_sealevel;temperature;humidity
31331;BME280;34067;39.548;-76.088;2022-07-23T00:01:35;101233.67;;;34.85;39.55
31331;BME280;34067;39.548;-76.088;2022-07-23T00:04:03;101235.19;;;35.02;39.52
31331;BME280;34067;39.548;-76.088;2022-07-23T00:06:32;101233.90;;;34.55;39.80
31331;BME280;34067;39.548;-76.088;2022-07-23T00:08:59;101236.92;;;34.70;40.38
31331;BME280;34067;39.548;-76.088;2022-07-23T00:11:27;101237.36;;;35.00;41.24
31331;BME280;34067;39.548;-76.088;2022-07-23T00:13:54;101234.84;;;34.03;41.64
31331;BME280;34067;39.548;-76.088;2022-07-23T00:16:23;101232.30;;;33.98;41.86
31331;BME280;34067;39.548;-76.088;2022-07-23T00:18:50;101233.75;;;34.61;42.50
31331;BME280;34067;39.548;-76.088;2022-07-23T00:21:19;101239.34;;;33.54;42.89
31331;BME280;34067;39.548;-76.088;2022-07-23T00:23:46;101241.55;;;33.98;43.16
31331;BME280;34067;39.548;-76.088;2022-07-23T00:26:14;101241.51;;;34.09;43.64
31331;BME280;34067;39.548;-76.088;2022-07-23T00:28:41;101244.58;;;33.77;44.12
31331;BME280;34067;39.548;-76.088;2022-07-23T00:31:09;101247.04;;;33.92;44.14
31331;BME280;34067;39.548;-76.088;2022-07-23T00:33:37;101249.82;;;33.98;44.73
31331;BME280;34067;39.548;-76.088;2022-07-23T00:36:06;101246.97;;;33.23;45.22
31331;BME280;34067;39.548;-76.088;2022-07-23T00:38:34;101250.66;;;33.65;44.80
31331;BME280;34067;39.548;-76.088;2022-07-23T00:41:02;101251.22;;;33.11;44.71
31331;BME280;34067;39.548;-76.088;2022-07-23T00:43:29;101251.89;;;33.23;45.39
31331;BME280;34067;39.548;-76.088;2022-07-23T00:45:57;101252.08;;;33.54;45.66
31331;BME280;34067;39.548;-76.088;2022-07-23T00:48:24;101254.73;;;33.06;45.81
31331;BME280;34067;39.548;-76.088;2022-07-23T00:50:52;101251.14;;;33.01;46.62
31331;BME280;34067;39.548;-76.088;2022-07-23T00:53:20;101249.92;;;32.37;47.48
31331;BME280;34067;39.548;-76.088;2022-07-23T00:55:48;101254.43;;;32.71;47.22
31331;BME280;34067;39.548;-76.088;2022-07-23T00:58:17;101256.46;;;33.02;46.94
31331;BME280;34067;39.548;-76.088;2022-07-23T01:00:46;101263.06;;;33.02;47.63
31331;BME280;34067;39.548;-76.088;2022-07-23T01:03:14;101263.46;;;32.69;48.34
31331;BME280;34067;39.548;-76.088;2022-07-23T01:05:41;101267.56;;;32.56;48.04
31331;BME280;34067;39.548;-76.088;2022-07-23T01:08:09;101266.23;;;32.94;48.41
31331;BME280;34067;39.548;-76.088;2022-07-23T01:10:38;101267.96;;;32.64;48.18
31331;BME280;34067;39.548;-76.088;2022-07-23T01:13:08;101274.90;;;32.43;47.94
31331;BME280;34067;39.548;-76.088;2022-07-23T01:15:37;101273.60;;;32.62;48.47
31331;BME280;34067;39.548;-76.088;2022-07-23T01:18:06;101277.56;;;32.44;48.13
31331;BME280;34067;39.548;-76.088;2022-07-23T01:20:35;101281.30;;;32.84;48.32
31331;BME280;34067;39.548;-76.088;2022-07-23T01:23:03;101279.40;;;32.42;48.30
31331;BME280;34067;39.548;-76.088;2022-07-23T01:25:32;101284.34;;;32.28;48.46
31331;BME280;34067;39.548;-76.088;2022-07-23T01:28:00;101290.44;;;32.75;48.42
31331;BME280;34067;39.548;-76.088;2022-07-23T01:30:28;101292.42;;;32.69;48.57
31331;BME280;34067;39.548;-76.088;2022-07-23T01:32:56;101291.33;;;32.69;48.51
31331;BME280;34067;39.548;-76.088;2022-07-23T01:35:24;101293.05;;;32.56;48.67
31331;BME280;34067;39.548;-76.088;2022-07-23T01:37:53;101299.27;;;32.35;49.04
31331;BME280;34067;39.548;-76.088;2022-07-23T01:40:21;101302.15;;;32.07;48.88
31331;BME280;34067;39.548;-76.088;2022-07-23T01:42:48;101305.80;;;32.40;49.00
31331;BME280;34067;39.548;-76.088;2022-07-23T01:45:16;101313.23;;;32.22;49.16
31331;BME280;34067;39.548;-76.088;2022-07-23T01:47:44;101313.21;;;32.11;49.35
31331;BME280;34067;39.548;-76.088;2022-07-23T01:50:12;101315.88;;;32.55;49.53
31331;BME280;34067;39.548;-76.088;2022-07-23T01:52:40;101323.28;;;32.31;49.90
31331;BME280;34067;39.548;-76.088;2022-07-23T01:55:08;101326.80;;;32.43;49.84
31331;BME280;34067;39.548;-76.088;2022-07-23T01:57:37;101328.38;;;32.32;49.75
31331;BME280;34067;39.548;-76.088;2022-07-23T02:00:06;101333.53;;;32.31;49.91
31331;BME280;34067;39.548;-76.088;2022-07-23T02:02:34;101336.80;;;31.70;50.37
31331;BME280;34067;39.548;-76.088;2022-07-23T02:05:01;101339.79;;;32.40;50.03
31331;BME280;34067;39.548;-76.088;2022-07-23T02:07:29;101347.11;;;31.36;51.00
31331;BME280;34067;39.548;-76.088;2022-07-23T02:09:57;101350.23;;;32.10;50.75
31331;BME280;34067;39.548;-76.088;2022-07-23T02:12:25;101356.68;;;32.04;50.93
31331;BME280;34067;39.548;-76.088;2022-07-23T02:14:53;101354.69;;;31.57;50.98
31331;BME280;34067;39.548;-76.088;2022-07-23T02:17:21;101350.98;;;32.28;50.79
31331;BME280;34067;39.548;-76.088;2022-07-23T02:19:48;101360.54;;;31.60;51.18
31331;BME280;34067;39.548;-76.088;2022-07-23T02:22:16;101357.67;;;32.16;51.22
31331;BME280;34067;39.548;-76.088;2022-07-23T02:24:44;101356.42;;;32.29;51.03
31331;BME280;34067;39.548;-76.088;2022-07-23T02:27:12;101359.15;;;32.28;51.28
31331;BME280;34067;39.548;-76.088;2022-07-23T02:29:40;101363.35;;;31.38;52.06
31331;BME280;34067;39.548;-76.088;2022-07-23T02:32:08;101359.97;;;32.29;52.21
31331;BME280;34067;39.548;-76.088;2022-07-23T02:34:36;101359.68;;;32.17;52.67
31331;BME280;34067;39.548;-76.088;2022-07-23T02:37:04;101364.61;;;31.51;52.34
31331;BME280;34067;39.548;-76.088;2022-07-23T02:39:32;101365.85;;;32.02;52.46
31331;BME280;34067;39.548;-76.088;2022-07-23T02:41:59;101364.92;;;31.58;53.36
31331;BME280;34067;39.548;-76.088;2022-07-23T02:44:27;101367.69;;;31.09;54.35
31331;BME280;34067;39.548;-76.088;2022-07-23T02:46:55;101365.30;;;31.38;54.03
31331;BME280;34067;39.548;-76.088;2022-07-23T02:49:23;101362.15;;;30.86;55.05
31331;BME280;34067;39.548;-76.088;2022-07-23T02:51:52;101367.54;;;31.74;55.19
31331;BME280;34067;39.548;-76.088;2022-07-23T02:54:19;101364.73;;;31.31;54.54
31331;BME280;34067;39.548;-76.088;2022-07-23T02:56:47;101364.93;;;31.68;54.71
31331;BME280;34067;39.548;-76.088;2022-07-23T02:59:15;101366.87;;;31.55;54.97
31331;BME280;34067;39.548;-76.088;2022-07-23T03:01:43;101368.45;;;31.25;54.70
31331;BME280;34067;39.548;-76.088;2022-07-23T03:04:11;101369.83;;;31.80;53.66
31331;BME280;34067;39.548;-76.088;2022-07-23T03:06:39;101371.83;;;31.87;53.58
31331;BME280;34067;39.548;-76.088;2022-07-23T03:09:07;101369.99;;;31.70;53.98
31331;BME280;34067;39.548;-76.088;2022-07-23T03:11:34;101370.60;;;32.03;53.40
31331;BME280;34067;39.548;-76.088;2022-07-23T03:14:02;101369.56;;;31.93;53.50
31331;BME280;34067;39.548;-76.088;2022-07-23T03:16:30;101372.11;;;31.94;53.52
31331;BME280;34067;39.548;-76.088;2022-07-23T03:18:58;101369.95;;;31.77;53.69
31331;BME280;34067;39.548;-76.088;2022-07-23T03:21:26;101367.44;;;31.55;53.92
31331;BME280;34067;39.548;-76.088;2022-07-23T03:23:54;101368.09;;;31.28;54.54
31331;BME280;34067;39.548;-76.088;2022-07-23T03:26:21;101365.88;;;31.35;54.22
31331;BME280;34067;39.548;-76.088;2022-07-23T03:28:49;101367.49;;;31.01;54.89
31331;BME280;34067;39.548;-76.088;2022-07-23T03:31:17;101368.59;;;31.49;54.75
31331;BME280;34067;39.548;-76.088;2022-07-23T03:33:46;101371.29;;;31.18;54.40
31331;BME280;34067;39.548;-76.088;2022-07-23T03:36:13;101373.89;;;31.13;54.49
31331;BME280;34067;39.548;-76.088;2022-07-23T03:38:41;101375.69;;;31.73;54.17
31331;BME280;34067;39.548;-76.088;2022-07-23T03:41:09;101381.33;;;31.30;54.26
31331;BME280;34067;39.548;-76.088;2022-07-23T03:43:37;101382.33;;;31.92;54.61
31331;BME280;34067;39.548;-76.088;2022-07-23T03:46:04;101384.18;;;31.09;54.70
31331;BME280;34067;39.548;-76.088;2022-07-23T03:48:32;101389.65;;;31.14;54.60
31331;BME280;34067;39.548;-76.088;2022-07-23T03:51:00;101388.79;;;31.51;55.65
31331;BME280;34067;39.548;-76.088;2022-07-23T03:53:28;101389.32;;;31.71;55.15
31331;BME280;34067;39.548;-76.088;2022-07-23T03:55:56;101392.36;;;31.92;54.68
31331;BME280;34067;39.548;-76.088;2022-07-23T03:58:23;101394.99;;;31.50;56.03
31331;BME280;34067;39.548;-76.088;2022-07-23T04:00:51;101394.16;;;30.98;55.87
31331;BME280;34067;39.548;-76.088;2022-07-23T04:03:21;101396.63;;;31.55;55.93
31331;BME280;34067;39.548;-76.088;2022-07-23T04:05:48;101394.92;;;29.94;57.37
31331;BME280;34067;39.548;-76.088;2022-07-23T04:08:16;101395.09;;;31.26;56.16
31331;BME280;34067;39.548;-76.088;2022-07-23T04:10:44;101395.08;;;30.48;57.07
31331;BME280;34067;39.548;-76.088;2022-07-23T04:13:12;101390.91;;;30.75;56.44
31331;BME280;34067;39.548;-76.088;2022-07-23T04:15:39;101393.48;;;30.61;56.78
31331;BME280;34067;39.548;-76.088;2022-07-23T04:18:07;101392.97;;;30.47;56.83
31331;BME280;34067;39.548;-76.088;2022-07-23T04:20:35;101390.84;;;30.38;57.03
31331;BME280;34067;39.548;-76.088;2022-07-23T04:23:03;101391.37;;;31.48;56.72
31331;BME280;34067;39.548;-76.088;2022-07-23T04:25:31;101394.27;;;30.69;56.39
31331;BME280;34067;39.548;-76.088;2022-07-23T04:27:59;101392.69;;;31.09;55.65
31331;BME280;34067;39.548;-76.088;2022-07-23T04:30:26;101397.84;;;30.11;57.44
31331;BME280;34067;39.548;-76.088;2022-07-23T04:32:54;101394.44;;;30.50;56.68
31331;BME280;34067;39.548;-76.088;2022-07-23T04:35:22;101394.57;;;30.41;56.35
31331;BME280;34067;39.548;-76.088;2022-07-23T04:37:50;101393.74;;;30.66;56.15
31331;BME280;34067;39.548;-76.088;2022-07-23T04:40:18;101392.42;;;30.92;54.87
31331;BME280;34067;39.548;-76.088;2022-07-23T04:42:46;101394.22;;;30.86;54.84
31331;BME280;34067;39.548;-76.088;2022-07-23T04:45:14;101395.22;;;30.66;53.81
31331;BME280;34067;39.548;-76.088;2022-07-23T04:47:42;101394.61;;;30.86;54.49
31331;BME280;34067;39.548;-76.088;2022-07-23T04:50:11;101395.22;;;31.05;53.80
31331;BME280;34067;39.548;-76.088;2022-07-23T04:52:39;101396.06;;;31.25;53.05
31331;BME280;34067;39.548;-76.088;2022-07-23T04:55:08;101397.88;;;29.85;53.84
31331;BME280;34067;39.548;-76.088;2022-07-23T04:57:36;101395.42;;;30.77;53.11
31331;BME280;34067;39.548;-76.088;2022-07-23T05:03:09;101393.89;;;30.32;52.34
31331;BME280;34067;39.548;-76.088;2022-07-23T05:05:37;101397.61;;;29.76;52.35
31331;BME280;34067;39.548;-76.088;2022-07-23T05:08:05;101398.41;;;30.08;51.81
31331;BME280;34067;39.548;-76.088;2022-07-23T05:10:33;101398.39;;;29.67;51.94
31331;BME280;34067;39.548;-76.088;2022-07-23T05:13:01;101397.11;;;30.65;51.57
31331;BME280;34067;39.548;-76.088;2022-07-23T05:15:29;101399.12;;;30.28;52.06
31331;BME280;34067;39.548;-76.088;2022-07-23T05:17:57;101398.38;;;29.95;51.13
31331;BME280;34067;39.548;-76.088;2022-07-23T05:20:25;101402.60;;;29.27;51.69
31331;BME280;34067;39.548;-76.088;2022-07-23T05:22:53;101400.41;;;29.47;52.42
31331;BME280;34067;39.548;-76.088;2022-07-23T05:25:21;101397.18;;;29.81;50.85
31331;BME280;34067;39.548;-76.088;2022-07-23T05:27:49;101399.95;;;30.60;50.15
31331;BME280;34067;39.548;-76.088;2022-07-23T05:30:17;101401.57;;;29.99;50.22
31331;BME280;34067;39.548;-76.088;2022-07-23T05:32:45;101406.11;;;29.49;50.90
31331;BME280;34067;39.548;-76.088;2022-07-23T05:35:13;101404.23;;;30.30;49.59
31331;BME280;34067;39.548;-76.088;2022-07-23T05:37:41;101407.20;;;30.63;49.34
31331;BME280;34067;39.548;-76.088;2022-07-23T05:40:10;101408.46;;;30.21;49.17
31331;BME280;34067;39.548;-76.088;2022-07-23T05:42:39;101409.41;;;30.55;49.45
31331;BME280;34067;39.548;-76.088;2022-07-23T05:45:09;101414.13;;;30.63;49.09
31331;BME280;34067;39.548;-76.088;2022-07-23T05:47:42;101412.23;;;30.45;49.40
31331;BME280;34067;39.548;-76.088;2022-07-23T05:50:10;101405.69;;;31.01;49.48
31331;BME280;34067;39.548;-76.088;2022-07-23T05:52:39;101400.25;;;30.54;49.62
31331;BME280;34067;39.548;-76.088;2022-07-23T05:55:08;101399.48;;;30.84;49.67
31331;BME280;34067;39.548;-76.088;2022-07-23T05:57:36;101396.62;;;30.96;49.77
31331;BME280;34067;39.548;-76.088;2022-07-23T06:00:06;101394.33;;;30.59;48.99
31331;BME280;34067;39.548;-76.088;2022-07-23T06:02:34;101397.42;;;31.08;48.64
31331;BME280;34067;39.548;-76.088;2022-07-23T06:05:01;101396.93;;;31.33;48.48
31331;BME280;34067;39.548;-76.088;2022-07-23T06:07:30;101400.14;;;30.98;48.50
31331;BME280;34067;39.548;-76.088;2022-07-23T06:09:57;101401.87;;;30.34;48.32
31331;BME280;34067;39.548;-76.088;2022-07-23T06:12:25;101401.88;;;30.95;48.58
31331;BME280;34067;39.548;-76.088;2022-07-23T06:14:53;101402.59;;;30.50;49.38
31331;BME280;34067;39.548;-76.088;2022-07-23T06:17:21;101403.32;;;30.93;50.99
31331;BME280;34067;39.548;-76.088;2022-07-23T06:19:49;101406.67;;;30.70;50.75
31331;BME280;34067;39.548;-76.088;2022-07-23T06:22:17;101407.23;;;30.91;50.47
31331;BME280;34067;39.548;-76.088;2022-07-23T06:24:45;101404.67;;;30.97;49.60
31331;BME280;34067;39.548;-76.088;2022-07-23T06:27:12;101404.56;;;30.47;49.42
31331;BME280;34067;39.548;-76.088;2022-07-23T06:29:41;101405.59;;;30.04;49.65
31331;BME280;34067;39.548;-76.088;2022-07-23T06:32:09;101404.32;;;30.65;49.06
31331;BME280;34067;39.548;-76.088;2022-07-23T06:34:37;101402.84;;;30.97;49.26
31331;BME280;34067;39.548;-76.088;2022-07-23T06:37:05;101401.95;;;30.51;48.85
31331;BME280;34067;39.548;-76.088;2022-07-23T06:39:34;101402.05;;;31.12;48.30
31331;BME280;34067;39.548;-76.088;2022-07-23T06:42:02;101400.65;;;30.24;48.76
31331;BME280;34067;39.548;-76.088;2022-07-23T06:44:31;101401.31;;;30.05;49.37
31331;BME280;34067;39.548;-76.088;2022-07-23T06:46:59;101402.37;;;30.63;48.64
31331;BME280;34067;39.548;-76.088;2022-07-23T06:49:27;101405.21;;;30.40;49.02
31331;BME280;34067;39.548;-76.088;2022-07-23T06:51:54;101404.12;;;30.30;48.51
31331;BME280;34067;39.548;-76.088;2022-07-23T06:54:22;101404.86;;;30.77;49.45
31331;BME280;34067;39.548;-76.088;2022-07-23T06:56:50;101402.00;;;30.89;49.54
31331;BME280;34067;39.548;-76.088;2022-07-23T06:59:18;101407.72;;;30.49;52.72
31331;BME280;34067;39.548;-76.088;2022-07-23T07:01:46;101406.97;;;29.60;64.81
31331;BME280;34067;39.548;-76.088;2022-07-23T07:04:14;101407.97;;;28.93;72.68
31331;BME280;34067;39.548;-76.088;2022-07-23T07:06:42;101410.50;;;27.80;76.07
31331;BME280;34067;39.548;-76.088;2022-07-23T07:09:10;101409.51;;;27.94;77.98
31331;BME280;34067;39.548;-76.088;2022-07-23T07:11:39;101409.85;;;28.04;79.67
31331;BME280;34067;39.548;-76.088;2022-07-23T07:14:07;101412.68;;;28.88;78.61
31331;BME280;34067;39.548;-76.088;2022-07-23T07:16:35;101408.58;;;28.92;75.16
31331;BME280;34067;39.548;-76.088;2022-07-23T07:19:03;101411.96;;;28.15;76.75
31331;BME280;34067;39.548;-76.088;2022-07-23T07:21:30;101412.83;;;28.51;75.00
31331;BME280;34067;39.548;-76.088;2022-07-23T07:24:04;101419.31;;;28.87;75.48
31331;BME280;34067;39.548;-76.088;2022-07-23T07:26:33;101418.88;;;28.63;78.04
31331;BME280;34067;39.548;-76.088;2022-07-23T07:29:01;101420.85;;;28.76;79.13
31331;BME280;34067;39.548;-76.088;2022-07-23T07:31:29;101419.16;;;28.95;76.43
31331;BME280;34067;39.548;-76.088;2022-07-23T07:33:57;101420.17;;;28.84;77.62
31331;BME280;34067;39.548;-76.088;2022-07-23T07:36:25;101421.39;;;28.98;74.23
31331;BME280;34067;39.548;-76.088;2022-07-23T07:38:53;101422.70;;;28.69;73.71
31331;BME280;34067;39.548;-76.088;2022-07-23T07:41:21;101426.68;;;29.12;73.83
31331;BME280;34067;39.548;-76.088;2022-07-23T07:43:49;101428.83;;;29.18;73.22
31331;BME280;34067;39.548;-76.088;2022-07-23T07:46:18;101431.89;;;29.84;72.40
31331;BME280;34067;39.548;-76.088;2022-07-23T07:48:46;101436.95;;;29.55;73.32
31331;BME280;34067;39.548;-76.088;2022-07-23T07:51:14;101440.73;;;29.95;72.74
31331;BME280;34067;39.548;-76.088;2022-07-23T07:53:42;101443.89;;;30.18;71.51
31331;BME280;34067;39.548;-76.088;2022-07-23T07:56:10;101447.01;;;30.03;71.51
31331;BME280;34067;39.548;-76.088;2022-07-23T07:58:38;101449.00;;;29.58;70.86
31331;BME280;34067;39.548;-76.088;2022-07-23T08:01:07;101454.15;;;29.99;70.31
31331;BME280;34067;39.548;-76.088;2022-07-23T08:03:34;101457.65;;;29.58;68.16
31331;BME280;34067;39.548;-76.088;2022-07-23T08:06:02;101458.16;;;29.17;70.41
31331;BME280;34067;39.548;-76.088;2022-07-23T08:08:30;101460.62;;;28.61;69.91
31331;BME280;34067;39.548;-76.088;2022-07-23T08:10:58;101464.31;;;28.78;71.67
31331;BME280;34067;39.548;-76.088;2022-07-23T08:13:26;101469.51;;;29.37;67.60
31331;BME280;34067;39.548;-76.088;2022-07-23T08:15:54;101464.29;;;28.80;68.94
31331;BME280;34067;39.548;-76.088;2022-07-23T08:18:22;101468.41;;;29.21;67.73
31331;BME280;34067;39.548;-76.088;2022-07-23T08:20:50;101473.99;;;28.96;68.01
31331;BME280;34067;39.548;-76.088;2022-07-23T08:23:18;101476.02;;;29.23;66.77
31331;BME280;34067;39.548;-76.088;2022-07-23T08:25:47;101475.88;;;29.31;66.24
31331;BME280;34067;39.548;-76.088;2022-07-23T08:28:15;101482.65;;;28.75;65.88
31331;BME280;34067;39.548;-76.088;2022-07-23T08:30:44;101485.69;;;29.42;64.53
31331;BME280;34067;39.548;-76.088;2022-07-23T08:33:14;101485.27;;;29.00;64.58
31331;BME280;34067;39.548;-76.088;2022-07-23T08:35:46;101488.74;;;28.96;63.37
31331;BME280;34067;39.548;-76.088;2022-07-23T08:38:17;101484.26;;;29.14;60.00
31331;BME280;34067;39.548;-76.088;2022-07-23T08:40:46;101487.39;;;28.89;59.27
31331;BME280;34067;39.548;-76.088;2022-07-23T08:43:16;101490.17;;;28.42;60.06
31331;BME280;34067;39.548;-76.088;2022-07-23T08:45:46;101496.07;;;27.62;65.90
31331;BME280;34067;39.548;-76.088;2022-07-23T08:48:15;101493.56;;;28.89;61.96
31331;BME280;34067;39.548;-76.088;2022-07-23T08:50:46;101491.11;;;28.50;59.54
31331;BME280;34067;39.548;-76.088;2022-07-23T08:53:15;101493.33;;;28.46;61.51
31331;BME280;34067;39.548;-76.088;2022-07-23T08:55:44;101494.67;;;28.72;61.33
31331;BME280;34067;39.548;-76.088;2022-07-23T08:58:12;101497.73;;;28.39;63.85
31331;BME280;34067;39.548;-76.088;2022-07-23T09:00:41;101499.62;;;28.27;65.40
31331;BME280;34067;39.548;-76.088;2022-07-23T09:03:14;101496.51;;;28.56;65.50
31331;BME280;34067;39.548;-76.088;2022-07-23T09:05:43;101499.09;;;28.80;64.94
31331;BME280;34067;39.548;-76.088;2022-07-23T09:08:13;101501.03;;;29.23;65.65
31331;BME280;34067;39.548;-76.088;2022-07-23T09:10:51;101504.39;;;28.23;67.09
31331;BME280;34067;39.548;-76.088;2022-07-23T09:13:36;101504.91;;;28.75;65.04
31331;BME280;34067;39.548;-76.088;2022-07-23T09:16:08;101507.55;;;28.23;65.90
31331;BME280;34067;39.548;-76.088;2022-07-23T09:18:39;101505.17;;;28.40;64.90
31331;BME280;34067;39.548;-76.088;2022-07-23T09:21:10;101507.70;;;28.34;63.73
31331;BME280;34067;39.548;-76.088;2022-07-23T09:23:42;101508.87;;;28.95;62.56
31331;BME280;34067;39.548;-76.088;2022-07-23T09:26:43;101510.49;;;29.13;61.19
31331;BME280;34067;39.548;-76.088;2022-07-23T09:29:14;101511.29;;;28.66;59.86
31331;BME280;34067;39.548;-76.088;2022-07-23T09:31:47;101511.25;;;28.95;60.45
31331;BME280;34067;39.548;-76.088;2022-07-23T09:34:19;101509.89;;;28.85;59.28
31331;BME280;34067;39.548;-76.088;2022-07-23T09:36:48;101510.96;;;29.02;59.15
31331;BME280;34067;39.548;-76.088;2022-07-23T09:39:23;101514.19;;;28.61;58.80
31331;BME280;34067;39.548;-76.088;2022-07-23T09:41:52;101517.28;;;28.84;58.69
31331;BME280;34067;39.548;-76.088;2022-07-23T09:44:21;101522.54;;;28.16;60.15
31331;BME280;34067;39.548;-76.088;2022-07-23T09:46:50;101523.50;;;28.01;60.49
31331;BME280;34067;39.548;-76.088;2022-07-23T09:49:21;101522.73;;;28.88;60.73
31331;BME280;34067;39.548;-76.088;2022-07-23T09:51:52;101526.76;;;28.30;59.63
31331;BME280;34067;39.548;-76.088;2022-07-23T09:54:24;101529.42;;;28.44;58.66
31331;BME280;34067;39.548;-76.088;2022-07-23T09:56:53;101533.90;;;28.80;58.09
31331;BME280;34067;39.548;-76.088;2022-07-23T09:59:25;101536.42;;;28.71;57.72
31331;BME280;34067;39.548;-76.088;2022-07-23T10:01:55;101536.48;;;28.79;57.44
31331;BME280;34067;39.548;-76.088;2022-07-23T10:04:24;101532.96;;;28.80;57.16
31331;BME280;34067;39.548;-76.088;2022-07-23T10:06:54;101535.30;;;28.47;56.77
31331;BME280;34067;39.548;-76.088;2022-07-23T10:09:26;101536.61;;;28.17;58.01
31331;BME280;34067;39.548;-76.088;2022-07-23T10:11:56;101544.13;;;27.92;58.47
31331;BME280;34067;39.548;-76.088;2022-07-23T10:14:25;101548.11;;;27.75;59.04
31331;BME280;34067;39.548;-76.088;2022-07-23T10:16:53;101548.11;;;28.52;58.78
31331;BME280;34067;39.548;-76.088;2022-07-23T10:19:22;101550.84;;;27.99;58.59
31331;BME280;34067;39.548;-76.088;2022-07-23T10:21:52;101551.98;;;29.13;58.13
31331;BME280;34067;39.548;-76.088;2022-07-23T10:24:34;101555.84;;;28.49;57.94
31331;BME280;34067;39.548;-76.088;2022-07-23T10:27:19;101555.97;;;28.72;58.42
31331;BME280;34067;39.548;-76.088;2022-07-23T10:29:54;101562.60;;;29.13;57.12
31331;BME280;34067;39.548;-76.088;2022-07-23T10:32:32;101564.68;;;28.84;56.61
31331;BME280;34067;39.548;-76.088;2022-07-23T10:35:13;101565.56;;;29.32;56.66
31331;BME280;34067;39.548;-76.088;2022-07-23T10:37:45;101567.27;;;28.32;57.18
31331;BME280;34067;39.548;-76.088;2022-07-23T10:40:16;101569.02;;;28.58;56.57
31331;BME280;34067;39.548;-76.088;2022-07-23T10:42:45;101570.54;;;29.05;56.88
31331;BME280;34067;39.548;-76.088;2022-07-23T10:45:24;101573.64;;;27.97;57.25
31331;BME280;34067;39.548;-76.088;2022-07-23T10:47:53;101572.81;;;28.44;57.69
31331;BME280;34067;39.548;-76.088;2022-07-23T10:50:24;101576.02;;;27.91;58.22
31331;BME280;34067;39.548;-76.088;2022-07-23T10:53:24;101579.77;;;28.56;57.09
31331;BME280;34067;39.548;-76.088;2022-07-23T10:55:52;101582.51;;;28.76;55.89
31331;BME280;34067;39.548;-76.088;2022-07-23T10:58:23;101585.79;;;28.76;55.78
31331;BME280;34067;39.548;-76.088;2022-07-23T11:00:51;101592.52;;;29.15;55.59
31331;BME280;34067;39.548;-76.088;2022-07-23T11:03:30;101594.60;;;29.63;55.11
31331;BME280;34067;39.548;-76.088;2022-07-23T11:05:59;101596.11;;;29.89;54.46
31331;BME280;34067;39.548;-76.088;2022-07-23T11:08:26;101598.54;;;29.78;53.49
31331;BME280;34067;39.548;-76.088;2022-07-23T11:11:07;101604.75;;;29.63;53.19
31331;BME280;34067;39.548;-76.088;2022-07-23T11:13:42;101607.89;;;30.25;52.96
31331;BME280;34067;39.548;-76.088;2022-07-23T11:16:18;101613.22;;;29.69;53.42
31331;BME280;34067;39.548;-76.088;2022-07-23T11:19:03;101615.62;;;29.72;53.29
31331;BME280;34067;39.548;-76.088;2022-07-23T11:21:50;101617.92;;;29.65;53.61
31331;BME280;34067;39.548;-76.088;2022-07-23T11:24:23;101618.17;;;29.91;53.59
31331;BME280;34067;39.548;-76.088;2022-07-23T11:26:57;101621.90;;;29.50;53.92
31331;BME280;34067;39.548;-76.088;2022-07-23T11:29:43;101624.42;;;30.44;54.95
31331;BME280;34067;39.548;-76.088;2022-07-23T11:32:37;101630.42;;;29.54;55.26
31331;BME280;34067;39.548;-76.088;2022-07-23T11:35:39;101634.41;;;28.41;57.63
31331;BME280;34067;39.548;-76.088;2022-07-23T11:38:11;101630.52;;;29.25;55.78
31331;BME280;34067;39.548;-76.088;2022-07-23T11:40:43;101632.17;;;28.39;56.35
31331;BME280;34067;39.548;-76.088;2022-07-23T11:43:11;101635.90;;;28.63;57.59
31331;BME280;34067;39.548;-76.088;2022-07-23T11:45:41;101638.92;;;28.11;58.14
31331;BME280;34067;39.548;-76.088;2022-07-23T11:48:16;101642.35;;;28.07;61.67
31331;BME280;34067;39.548;-76.088;2022-07-23T11:50:45;101643.43;;;28.43;66.07
31331;BME280;34067;39.548;-76.088;2022-07-23T11:53:21;101642.44;;;28.60;64.25
31331;BME280;34067;39.548;-76.088;2022-07-23T11:55:50;101636.36;;;28.85;67.54
31331;BME280;34067;39.548;-76.088;2022-07-23T11:58:18;101629.72;;;27.52;70.59
31331;BME280;34067;39.548;-76.088;2022-07-23T12:00:47;101634.18;;;26.91;70.41
31331;BME280;34067;39.548;-76.088;2022-07-23T12:03:15;101633.53;;;27.05;72.02
31331;BME280;34067;39.548;-76.088;2022-07-23T12:05:43;101634.14;;;26.92;73.56
31331;BME280;34067;39.548;-76.088;2022-07-23T12:08:11;101633.05;;;26.62;77.97
31331;BME280;34067;39.548;-76.088;2022-07-23T12:10:41;101632.82;;;27.38;77.73
31331;BME280;34067;39.548;-76.088;2022-07-23T12:13:11;101632.98;;;27.41;74.81
31331;BME280;34067;39.548;-76.088;2022-07-23T12:15:41;101633.06;;;27.65;72.78
31331;BME280;34067;39.548;-76.088;2022-07-23T12:18:12;101629.82;;;28.56;74.22
31331;BME280;34067;39.548;-76.088;2022-07-23T12:20:44;101630.16;;;26.76;73.13
31331;BME280;34067;39.548;-76.088;2022-07-23T12:23:14;101628.98;;;27.89;72.59
31331;BME280;34067;39.548;-76.088;2022-07-23T12:25:43;101634.31;;;26.71;73.65
31331;BME280;34067;39.548;-76.088;2022-07-23T12:28:14;101635.87;;;27.05;71.69
31331;BME280;34067;39.548;-76.088;2022-07-23T12:30:44;101639.73;;;28.06;67.84
31331;BME280;34067;39.548;-76.088;2022-07-23T12:33:14;101646.79;;;28.31;69.14
31331;BME280;34067;39.548;-76.088;2022-07-23T12:35:44;101643.20;;;28.22;72.73
31331;BME280;34067;39.548;-76.088;2022-07-23T12:38:13;101646.51;;;28.25;67.87
31331;BME280;34067;39.548;-76.088;2022-07-23T12:40:44;101643.50;;;27.53;70.06
31331;BME280;34067;39.548;-76.088;2022-07-23T12:43:19;101643.57;;;27.06;70.78
31331;BME280;34067;39.548;-76.088;2022-07-23T12:45:50;101647.48;;;28.21;67.81